Terminal Aerodrome Forecast
Issued by NWS Duluth, MN

Home | Current Version | Previous Version | Text Only | Print | Product List | Glossary On
Versions: 1 2 3 4 5 6 7 8 9 10 11 12 13 14 15 16
000
FTUS43 KDLH 231100
TAFINL
TAF
KINL 231129Z 2312/2412 13009KT P6SM BKN250
     FM231900 13012G19KT P6SM BKN250
     FM240200 12009KT 6SM -RA OVC060
     FM240500 11011KT 4SM -RA OVC040
     FM240800 11012KT 4SM -RA OVC015=

USA.gov is the U.S. government's official web portal to all federal, state and local government web resources and services.